createdAt,value
2018-10-11T00:01:55.256Z,11.7
2018-10-11T00:07:23.807Z,11.7
2018-10-11T00:12:52.609Z,11.7
2018-10-11T00:18:25.886Z,11.7
2018-10-11T00:23:50.658Z,11.7
2018-10-11T00:29:24.968Z,11.7
2018-10-11T00:34:49.485Z,11.7
2018-10-11T00:40:17.999Z,11.7
2018-10-11T00:45:47.783Z,11.7
2018-10-11T00:51:17.334Z,11.7
2018-10-11T00:56:45.596Z,11.7
2018-10-11T01:02:20.422Z,11.7
2018-10-11T01:07:43.653Z,11.7
2018-10-11T01:13:13.210Z,11.7
2018-10-11T01:18:42.735Z,11.7
2018-10-11T01:24:17.269Z,11.7
2018-10-11T01:29:41.885Z,11.7
2018-10-11T01:35:11.309Z,11.6
2018-10-11T01:40:41.091Z,11.6
2018-10-11T01:46:14.637Z,11.6
2018-10-11T01:51:39.143Z,11.6
2018-10-11T01:57:13.400Z,11.5
2018-10-11T02:02:36.894Z,11.5
2018-10-11T02:08:05.389Z,11.4
2018-10-11T02:13:33.938Z,11.4
2018-10-11T02:19:03.465Z,11.3
2018-10-11T02:24:36.894Z,11.3
2018-10-11T02:30:01.385Z,11.3
2018-10-11T02:35:34.935Z,11.2
2018-10-11T02:40:58.349Z,11.2
2018-10-11T02:46:27.111Z,11.2
2018-10-11T02:52:00.312Z,11.2
2018-10-11T02:57:23.807Z,11.2
2018-10-11T03:02:58.287Z,11.1
2018-10-11T03:08:27.003Z,11.1
2018-10-11T03:13:51.403Z,11.1
2018-10-11T03:19:19.657Z,11.2
2018-10-11T03:24:54.590Z,11.2
2018-10-11T03:30:17.907Z,11.2
2018-10-11T03:35:51.126Z,11.1
2018-10-11T03:41:20.588Z,11.1
2018-10-11T03:46:45.062Z,11.1
2018-10-11T03:52:13.515Z,11
2018-10-11T03:57:47.257Z,11
2018-10-11T04:03:11.485Z,11
2018-10-11T04:08:44.950Z,11
2018-10-11T04:14:09.666Z,11
2018-10-11T04:19:38.213Z,11
2018-10-11T04:25:12.448Z,11
2018-10-11T04:30:35.775Z,11
2018-10-11T04:36:09.301Z,11.1
2018-10-11T04:41:32.715Z,11.1
2018-10-11T04:47:01.463Z,11.1
2018-10-11T04:52:30.958Z,11.2
2018-10-11T04:57:59.134Z,11.2
2018-10-11T05:03:27.598Z,11.1
2018-10-11T05:09:02.102Z,11.1
2018-10-11T05:14:31.929Z,11
2018-10-11T05:20:00.291Z,11
2018-10-11T05:25:23.480Z,11
2018-10-11T05:30:52.908Z,10.9
2018-10-11T05:36:21.421Z,10.9
2018-10-11T05:41:49.808Z,10.8
2018-10-11T05:47:18.241Z,10.8
2018-10-11T05:52:46.945Z,10.7
2018-10-11T05:58:20.094Z,10.7
2018-10-11T06:03:43.516Z,10.8
2018-10-11T06:09:13.033Z,10.8
2018-10-11T06:14:42.409Z,10.9
2018-10-11T06:20:10.864Z,10.9
2018-10-11T06:25:39.313Z,11
2018-10-11T06:31:09.054Z,11.1
2018-10-11T06:36:38.318Z,11.2
2018-10-11T06:42:07.770Z,11.3
2018-10-11T06:47:36.464Z,11.4
2018-10-11T06:53:09.746Z,11.5
2018-10-11T06:58:38.273Z,11.6
2018-10-11T07:04:02.734Z,11.7
2018-10-11T07:09:31.266Z,11.8
2018-10-11T07:15:04.835Z,11.9
2018-10-11T07:20:29.346Z,12
2018-10-11T07:26:02.997Z,12.1
2018-10-11T07:31:27.449Z,12.2
2018-10-11T07:37:02.009Z,12.3
2018-10-11T07:42:31.618Z,12.3
2018-10-11T07:47:55.153Z,12.4
2018-10-11T07:53:23.766Z,12.5
2018-10-11T07:58:57.661Z,12.6
2018-10-11T08:04:20.963Z,12.7
2018-10-11T08:09:49.815Z,12.8
2018-10-11T08:15:19.167Z,12.9
2018-10-11T08:20:52.773Z,13
2018-10-11T08:26:22.795Z,13.1
2018-10-11T08:31:52.074Z,13.2
2018-10-11T08:37:18.027Z,13.3
2018-10-11T08:42:46.412Z,13.4
2018-10-11T08:48:15.915Z,13.5
2018-10-11T08:53:45.633Z,13.6
2018-10-11T08:59:15.047Z,13.7
2018-10-11T09:04:43.901Z,13.8
2018-10-11T09:10:13.609Z,13.8
2018-10-11T09:15:47.585Z,13.9
2018-10-11T09:21:10.993Z,14
2018-10-11T09:26:45.856Z,14.1
2018-10-11T09:32:10.694Z,14.2
2018-10-11T09:37:45.238Z,14.3
2018-10-11T09:43:14.969Z,14.3
2018-10-11T09:48:38.899Z,14.4
2018-10-11T09:54:07.623Z,14.5
2018-10-11T09:59:42.172Z,14.6
2018-10-11T10:05:06.933Z,14.7
2018-10-11T10:10:40.991Z,14.8
2018-10-11T10:16:04.476Z,14.9
2018-10-11T10:21:33.336Z,15
2018-10-11T10:27:03.317Z,15.1
2018-10-11T10:32:33.218Z,15.2
2018-10-11T10:38:02.741Z,15.3
2018-10-11T10:43:37.596Z,15.3
2018-10-11T10:49:07.612Z,15.4
2018-10-11T10:54:31.356Z,15.5
2018-10-11T11:00:05.505Z,15.5
2018-10-11T11:05:35.229Z,15.6
2018-10-11T11:10:58.838Z,15.7
2018-10-11T11:16:28.712Z,15.7
2018-10-11T11:22:03.607Z,15.8
2018-10-11T11:27:32.530Z,16
2018-10-11T11:32:56.408Z,16.1
2018-10-11T11:38:25.327Z,16.1
2018-10-11T11:43:54.285Z,16.2
2018-10-11T11:49:28.292Z,16.4
2018-10-11T12:00:23.178Z,16.5
2018-10-11T12:05:58.670Z,16.6
2018-10-11T12:11:27.100Z,16.7
2018-10-11T12:16:52.336Z,16.8
2018-10-11T12:22:26.126Z,16.9
2018-10-11T12:27:50.110Z,17
2018-10-11T12:33:19.377Z,17
2018-10-11T12:38:48.261Z,17.1
2018-10-11T12:44:17.182Z,17.2
2018-10-11T12:49:49.342Z,17.2
2018-10-11T12:55:16.256Z,17.3
2018-10-11T13:00:45.620Z,17.3
2018-10-11T13:06:14.378Z,17.4
2018-10-11T13:11:49.427Z,17.4
2018-10-11T13:17:18.509Z,17.5
2018-10-11T13:22:43.660Z,17.5
2018-10-11T13:28:13.575Z,17.5
2018-10-11T13:33:43.688Z,17.6
2018-10-11T13:39:17.747Z,17.7
2018-10-11T13:44:47.125Z,17.7
2018-10-11T13:50:16.962Z,17.7
2018-10-11T13:55:45.272Z,17.7
2018-10-11T14:01:15.488Z,17.7
2018-10-11T14:06:39.209Z,17.8
2018-10-11T14:12:14.330Z,17.8
2018-10-11T14:17:43.723Z,17.8
2018-10-11T14:23:07.510Z,17.8
2018-10-11T14:28:36.843Z,17.8
2018-10-11T14:34:05.706Z,17.8
2018-10-11T14:39:35.106Z,17.8
2018-10-11T14:45:04.914Z,17.7
2018-10-11T14:50:34.248Z,17.6
2018-10-11T14:56:03.029Z,17.5
2018-10-11T15:01:33.108Z,17.4
2018-10-11T15:07:03.202Z,17.3
2018-10-11T15:12:32.472Z,17.1
2018-10-11T15:18:06.279Z,16.9
2018-10-11T15:23:35.516Z,16.7
2018-10-11T15:28:59.186Z,16.6
2018-10-11T15:34:29.194Z,16.4
2018-10-11T15:39:59.177Z,16.3
2018-10-11T15:45:28.047Z,16.1
2018-10-11T15:51:03.257Z,16
2018-10-11T15:56:32.901Z,15.8
2018-10-11T16:01:56.765Z,15.7
2018-10-11T16:07:30.638Z,15.6
2018-10-11T16:12:55.490Z,15.4
2018-10-11T16:18:24.313Z,15.3
2018-10-11T16:23:53.139Z,15.2
2018-10-11T16:29:22.936Z,15.1
2018-10-11T16:34:58.042Z,15
2018-10-11T16:40:22.802Z,14.9
2018-10-11T16:45:51.618Z,14.8
2018-10-11T16:51:21.385Z,14.6
2018-10-11T16:56:56.135Z,14.5
2018-10-11T17:02:24.621Z,14.4
2018-10-11T17:07:48.341Z,14.3
2018-10-11T17:13:18.059Z,14.2
2018-10-11T17:18:47.897Z,14.2
2018-10-11T17:24:16.520Z,14.1
2018-10-11T17:29:51.390Z,14
2018-10-11T17:35:15.122Z,14
2018-10-11T17:40:48.680Z,13.9
2018-10-11T17:46:18.360Z,13.9
2018-10-11T17:51:43.020Z,13.9
2018-10-11T17:57:11.944Z,13.8
2018-10-11T18:02:45.963Z,13.8
2018-10-11T18:08:15.204Z,13.7
2018-10-11T18:13:39.745Z,13.6
2018-10-11T18:19:09.395Z,13.6
2018-10-11T18:24:38.048Z,13.5
2018-10-11T18:30:07.935Z,13.5
2018-10-11T18:35:42.369Z,13.4
2018-10-11T18:41:11.978Z,13.4
2018-10-11T18:46:35.581Z,13.3
2018-10-11T18:52:04.188Z,13.2
2018-10-11T18:57:33.088Z,13.2
2018-10-11T19:03:02.438Z,13.1
2018-10-11T19:08:31.490Z,13.1
2018-10-11T19:13:59.914Z,13
2018-10-11T19:19:33.320Z,13
2018-10-11T19:24:59.768Z,13
2018-10-11T19:30:26.478Z,12.9
2018-10-11T19:35:56.055Z,12.9
2018-10-11T19:41:24.921Z,12.8
2018-10-11T19:46:54.301Z,12.7
2018-10-11T19:52:23.904Z,12.7
2018-10-11T19:57:53.517Z,12.7
2018-10-11T20:03:27.121Z,12.6
2018-10-11T20:08:50.703Z,12.6
2018-10-11T20:14:19.313Z,12.5
2018-10-11T20:19:48.876Z,12.5
2018-10-11T20:25:18.485Z,12.5
2018-10-11T20:30:53.087Z,12.5
2018-10-11T20:36:17.699Z,12.4
2018-10-11T20:41:46.227Z,12.4
2018-10-11T20:47:19.845Z,12.4
2018-10-11T20:52:44.400Z,12.3
2018-10-11T20:58:12.969Z,12.3
2018-10-11T21:03:46.802Z,12.3
2018-10-11T21:09:11.128Z,12.3
2018-10-11T21:14:39.788Z,12.4
2018-10-11T21:20:08.342Z,12.4
2018-10-11T21:25:37.909Z,12.4
2018-10-11T21:31:06.812Z,12.5
2018-10-11T21:36:36.188Z,12.5
2018-10-11T21:42:05.668Z,12.5
2018-10-11T21:47:40.261Z,12.5
2018-10-11T21:53:08.888Z,12.5
2018-10-11T21:58:33.719Z,12.5
2018-10-11T22:04:08.089Z,12.5
2018-10-11T22:09:32.994Z,12.5
2018-10-11T22:15:02.409Z,12.5
2018-10-11T22:20:30.861Z,12.5
2018-10-11T22:26:00.460Z,12.5
2018-10-11T22:31:29.002Z,12.5
2018-10-11T22:36:57.624Z,12.4
2018-10-11T22:42:26.425Z,12.4
2018-10-11T22:47:54.731Z,12.4
2018-10-11T22:53:28.583Z,12.4
2018-10-11T22:58:57.908Z,12.3
2018-10-11T23:04:22.753Z,12.3
2018-10-11T23:09:51.046Z,12.3
2018-10-11T23:15:20.906Z,12.3
2018-10-11T23:20:49.154Z,12.4
2018-10-11T23:26:23.755Z,12.4
2018-10-11T23:31:47.339Z,12.4
2018-10-11T23:37:15.931Z,12.3
2018-10-11T23:42:44.599Z,12.3
2018-10-11T23:48:14.069Z,12.3
2018-10-11T23:53:42.601Z,12.3
2018-10-11T23:59:11.173Z,12.2
